createdAt,value
2023-04-16T00:02:13.782Z,100047.13
2023-04-16T00:04:41.274Z,100053.94
2023-04-16T00:07:08.648Z,100047.53
2023-04-16T00:09:35.868Z,100042.59
2023-04-16T00:12:03.283Z,100049.38
2023-04-16T00:14:30.841Z,100048.34
2023-04-16T00:16:57.844Z,100058.81
2023-04-16T00:19:24.896Z,100054.47
2023-04-16T00:21:52.378Z,100058.16
2023-04-16T00:24:19.342Z,100060.94
2023-04-16T00:26:46.726Z,100069.56
2023-04-16T00:29:13.705Z,100065.94
2023-04-16T00:31:40.887Z,100071.41
2023-04-16T00:34:08.109Z,100063.31
2023-04-16T00:36:35.246Z,100060.78
2023-04-16T00:39:02.257Z,100074.09
2023-04-16T00:41:29.301Z,100067.91
2023-04-16T00:43:56.483Z,100068.94
2023-04-16T00:46:25.031Z,100070.84
2023-04-16T00:48:54.497Z,100084.03
2023-04-16T00:51:22.715Z,100081.22
2023-04-16T00:53:49.996Z,100071.50
2023-04-16T00:56:17.878Z,100075.16
2023-04-16T00:58:45.403Z,100085.59
2023-04-16T01:01:14.476Z,100082.03
2023-04-16T01:03:45.948Z,100084.94
2023-04-16T01:06:14.249Z,100087.38
2023-04-16T01:08:41.348Z,100085.53
2023-04-16T01:11:08.612Z,100095.22
2023-04-16T01:13:39.552Z,100094.41
2023-04-16T01:16:11.870Z,100094.31
2023-04-16T01:18:39.672Z,100097.56
2023-04-16T01:21:06.914Z,100103.72
2023-04-16T01:23:33.899Z,100100.09
2023-04-16T01:26:01.146Z,100091.09
2023-04-16T01:28:28.151Z,100097.50
2023-04-16T01:30:55.167Z,100099.41
2023-04-16T01:33:22.182Z,100104.00
2023-04-16T01:35:49.264Z,100090.47
2023-04-16T01:38:16.375Z,100088.44
2023-04-16T01:40:43.588Z,100086.56
2023-04-16T01:43:11.174Z,100093.44
2023-04-16T01:45:38.184Z,100087.00
2023-04-16T01:48:05.613Z,100074.91
2023-04-16T01:50:32.734Z,100082.62
2023-04-16T01:52:59.784Z,100079.47
2023-04-16T01:55:27.227Z,100078.47
2023-04-16T01:57:54.329Z,100072.41
2023-04-16T02:00:21.362Z,100071.81
2023-04-16T02:02:49.584Z,100067.44
2023-04-16T02:05:16.862Z,100078.19
2023-04-16T02:07:43.793Z,100072.81
2023-04-16T02:10:10.912Z,100075.56
2023-04-16T02:12:37.926Z,100076.44
2023-04-16T02:15:05.476Z,100070.78
2023-04-16T02:17:32.593Z,100071.63
2023-04-16T02:19:59.526Z,100070.53
2023-04-16T02:22:26.432Z,100072.28
2023-04-16T02:24:53.570Z,100074.28
2023-04-16T02:27:20.668Z,100070.69
2023-04-16T02:29:47.631Z,100069.28
2023-04-16T02:32:14.668Z,100078.34
2023-04-16T02:34:42.834Z,100074.75
2023-04-16T02:37:09.728Z,100072.41
2023-04-16T02:39:36.656Z,100067.28
2023-04-16T02:42:03.729Z,100072.59
2023-04-16T02:44:30.799Z,100074.53
2023-04-16T02:46:57.714Z,100076.12
2023-04-16T02:49:24.715Z,100073.72
2023-04-16T02:51:51.659Z,100071.44
2023-04-16T02:54:18.616Z,100080.25
2023-04-16T02:56:45.752Z,100081.50
2023-04-16T02:59:12.668Z,100087.03
2023-04-16T03:01:39.699Z,100084.16
2023-04-16T03:04:06.875Z,100095.00
2023-04-16T03:06:33.918Z,100091.66
2023-04-16T03:09:00.877Z,100090.69
2023-04-16T03:11:30.949Z,100095.16
2023-04-16T03:13:58.077Z,100097.66
2023-04-16T03:16:25.013Z,100101.13
2023-04-16T03:18:52.086Z,100102.13
2023-04-16T03:21:19.188Z,100107.38
2023-04-16T03:23:46.104Z,100100.50
2023-04-16T03:26:13.063Z,100103.16
2023-04-16T03:28:40.023Z,100105.56
2023-04-16T03:31:07.112Z,100115.22
2023-04-16T03:33:34.094Z,100111.31
2023-04-16T03:36:01.125Z,100113.03
2023-04-16T03:38:28.225Z,100118.44
2023-04-16T03:40:55.310Z,100124.19
2023-04-16T03:43:22.345Z,100131.16
2023-04-16T03:45:49.562Z,100132.03
2023-04-16T03:48:18.764Z,100134.00
2023-04-16T03:50:55.115Z,100138.94
2023-04-16T03:53:40.524Z,100142.84
2023-04-16T03:56:07.789Z,100139.00
2023-04-16T03:58:35.346Z,100148.78
2023-04-16T04:01:02.387Z,100153.13
2023-04-16T04:03:29.548Z,100151.97
2023-04-16T04:05:56.821Z,100155.25
2023-04-16T04:08:23.853Z,100160.53
2023-04-16T04:10:51.461Z,100163.03
2023-04-16T04:13:19.772Z,100164.91
2023-04-16T04:15:46.811Z,100165.91
2023-04-16T04:18:13.726Z,100172.63
2023-04-16T04:20:43.967Z,100176.03
2023-04-16T04:23:11.215Z,100178.44
2023-04-16T04:25:38.312Z,100176.66
2023-04-16T04:28:05.431Z,100187.19
2023-04-16T04:30:32.397Z,100186.16
2023-04-16T04:32:59.466Z,100194.16
2023-04-16T04:35:26.491Z,100190.03
2023-04-16T04:37:53.447Z,100194.13
2023-04-16T04:40:20.702Z,100197.63
2023-04-16T04:42:47.753Z,100197.69
2023-04-16T04:45:14.726Z,100205.34
2023-04-16T04:47:41.862Z,100203.63
2023-04-16T04:50:09.346Z,100212.47
2023-04-16T04:52:36.525Z,100207.31
2023-04-16T04:55:03.977Z,100211.00
2023-04-16T04:57:31.034Z,100215.41
2023-04-16T04:59:58.021Z,100214.44
2023-04-16T05:02:25.097Z,100215.44
2023-04-16T05:04:52.189Z,100216.63
2023-04-16T05:07:19.238Z,100222.66
2023-04-16T05:09:46.323Z,100211.09
2023-04-16T05:12:13.342Z,100219.03
2023-04-16T05:14:40.410Z,100227.91
2023-04-16T05:17:08.350Z,100221.53
2023-04-16T05:19:35.627Z,100223.16
2023-04-16T05:22:03.010Z,100224.78
2023-04-16T05:24:30.257Z,100223.78
2023-04-16T05:26:57.508Z,100224.19
2023-04-16T05:29:24.571Z,100225.84
2023-04-16T05:31:51.593Z,100222.16
2023-04-16T05:34:18.690Z,100226.63
2023-04-16T05:36:46.177Z,100239.09
2023-04-16T05:39:13.234Z,100231.22
2023-04-16T05:41:40.209Z,100234.03
2023-04-16T05:44:07.228Z,100238.50
2023-04-16T05:46:34.488Z,100236.78
2023-04-16T05:49:01.616Z,100231.59
2023-04-16T05:51:29.688Z,100236.78
2023-04-16T05:53:56.713Z,100237.66
2023-04-16T05:56:23.751Z,100240.22
2023-04-16T05:58:50.836Z,100236.66
2023-04-16T06:01:18.872Z,100239.31
2023-04-16T06:03:46.158Z,100245.47
2023-04-16T06:06:13.496Z,100242.91
2023-04-16T06:08:40.586Z,100243.75
2023-04-16T06:11:07.658Z,100244.53
2023-04-16T06:13:34.610Z,100248.88
2023-04-16T06:16:01.699Z,100254.25
2023-04-16T06:18:28.667Z,100260.22
2023-04-16T06:20:55.979Z,100261.22
2023-04-16T06:23:22.988Z,100257.66
2023-04-16T06:25:50.015Z,100255.91
2023-04-16T06:28:17.004Z,100254.16
2023-04-16T06:30:44.751Z,100255.06
2023-04-16T06:33:12.170Z,100254.00
2023-04-16T06:35:39.202Z,100260.34
2023-04-16T06:38:06.309Z,100259.38
2023-04-16T06:40:33.372Z,100262.06
2023-04-16T06:43:00.644Z,100259.44
2023-04-16T06:45:27.681Z,100268.19
2023-04-16T06:47:54.753Z,100259.38
2023-04-16T06:50:23.641Z,100263.75
2023-04-16T06:52:50.804Z,100261.00
2023-04-16T06:55:17.924Z,100267.19
2023-04-16T06:57:44.939Z,100262.81
2023-04-16T07:00:12.549Z,100258.53
2023-04-16T07:02:39.770Z,100261.16
2023-04-16T07:05:07.162Z,100257.53
2023-04-16T07:07:34.228Z,100262.81
2023-04-16T07:10:01.305Z,100270.78
2023-04-16T07:12:28.310Z,100282.13
2023-04-16T07:14:55.279Z,100275.91
2023-04-16T07:17:22.279Z,100278.41
2023-04-16T07:19:49.338Z,100279.44
2023-04-16T07:22:16.954Z,100292.66
2023-04-16T07:24:43.954Z,100287.38
2023-04-16T07:27:11.830Z,100279.53
2023-04-16T07:29:38.803Z,100275.78
2023-04-16T07:32:05.863Z,100289.06
2023-04-16T07:34:32.877Z,100282.69
2023-04-16T07:36:59.955Z,100290.81
2023-04-16T07:39:26.948Z,100296.84
2023-04-16T07:41:53.988Z,100303.16
2023-04-16T07:44:21.119Z,100293.47
2023-04-16T07:46:48.282Z,100289.94
2023-04-16T07:49:15.837Z,100293.16
2023-04-16T07:51:42.981Z,100282.72
2023-04-16T07:54:11.285Z,100285.50
2023-04-16T07:56:38.335Z,100287.75
2023-04-16T07:59:21.166Z,100290.34
2023-04-16T08:01:49.877Z,100288.34
2023-04-16T08:04:23.459Z,100296.66
2023-04-16T08:06:51.969Z,100294.06
2023-04-16T08:09:21.379Z,100296.56
2023-04-16T08:11:50.147Z,100306.44
2023-04-16T08:14:17.864Z,100307.41
2023-04-16T08:16:45.254Z,100327.47
2023-04-16T08:19:12.710Z,100323.06
2023-04-16T08:21:40.138Z,100323.78
2023-04-16T08:24:07.349Z,100328.19
2023-04-16T08:26:34.382Z,100340.47
2023-04-16T08:29:01.587Z,100339.75
2023-04-16T08:31:28.655Z,100346.69
2023-04-16T08:33:55.791Z,100347.38
2023-04-16T08:36:22.872Z,100358.75
2023-04-16T08:38:50.860Z,100365.00
2023-04-16T08:41:17.845Z,100357.62
2023-04-16T08:43:48.839Z,100359.59
2023-04-16T08:46:18.192Z,100362.25
2023-04-16T08:48:50.114Z,100358.69
2023-04-16T08:51:20.068Z,100350.88
2023-04-16T08:53:54.165Z,100363.69
2023-04-16T08:56:24.160Z,100360.97
2023-04-16T08:58:53.246Z,100366.28
2023-04-16T09:40:30.711Z,100357.88
2023-04-16T09:42:59.067Z,100357.09
2023-04-16T09:45:26.483Z,100359.69
2023-04-16T09:47:53.525Z,100365.81
2023-04-16T09:50:21.040Z,100369.25
2023-04-16T09:52:51.879Z,100366.00
2023-04-16T09:55:24.250Z,100373.88
2023-04-16T09:57:59.753Z,100370.28
2023-04-16T10:00:26.819Z,100369.22
2023-04-16T10:03:05.937Z,100373.75
2023-04-16T10:05:33.064Z,100370.84
2023-04-16T10:08:02.971Z,100368.97
2023-04-16T10:10:30.894Z,100363.88
2023-04-16T10:12:58.717Z,100364.09
2023-04-16T10:15:25.967Z,100362.25
2023-04-16T10:17:54.411Z,100371.78
2023-04-16T10:20:23.005Z,100372.72
2023-04-16T10:22:50.565Z,100363.19
2023-04-16T10:25:18.296Z,100356.16
2023-04-16T10:27:46.173Z,100352.47
2023-04-16T10:30:15.778Z,100350.78
2023-04-16T10:32:43.023Z,100346.28
2023-04-16T10:35:10.098Z,100355.72
2023-04-16T10:37:37.999Z,100342.63
2023-04-16T10:40:26.620Z,100338.75
2023-04-16T10:42:58.441Z,100338.50
2023-04-16T10:45:37.659Z,100339.69
2023-04-16T10:48:07.004Z,100332.44
2023-04-16T10:50:37.992Z,100334.31
2023-04-16T10:53:24.290Z,100335.44
2023-04-16T10:56:03.313Z,100326.75
2023-04-16T10:58:32.183Z,100328.78
2023-04-16T11:01:07.106Z,100328.53
2023-04-16T11:03:34.249Z,100316.50
2023-04-16T11:06:24.101Z,100327.03
2023-04-16T11:09:09.434Z,100326.84
2023-04-16T11:11:39.828Z,100329.63
2023-04-16T11:14:08.348Z,100330.66
2023-04-16T11:16:35.307Z,100330.38
2023-04-16T11:19:02.395Z,100321.63
2023-04-16T11:21:29.569Z,100320.12
2023-04-16T11:23:58.251Z,100319.84
2023-04-16T11:26:27.675Z,100321.94
2023-04-16T11:28:57.089Z,100307.63
2023-04-16T11:31:24.898Z,100309.56
2023-04-16T11:33:51.977Z,100313.19
2023-04-16T11:36:19.210Z,100308.47
2023-04-16T11:38:47.430Z,100310.72
2023-04-16T11:41:21.027Z,100294.37
2023-04-16T11:43:48.066Z,100297.44
2023-04-16T11:46:27.077Z,100304.16
2023-04-16T11:48:55.846Z,100300.66
2023-04-16T11:51:23.819Z,100288.56
2023-04-16T11:53:55.206Z,100295.78
2023-04-16T11:56:29.655Z,100295.34
2023-04-16T11:59:09.699Z,100281.97
2023-04-16T12:01:38.405Z,100279.50
2023-04-16T12:04:05.763Z,100280.78
2023-04-16T12:06:33.242Z,100279.59
2023-04-16T12:09:24.160Z,100284.03
2023-04-16T12:11:51.270Z,100276.50
2023-04-16T12:14:18.368Z,100286.69
2023-04-16T12:16:45.581Z,100279.47
2023-04-16T12:19:13.479Z,100277.56
2023-04-16T12:21:48.364Z,100287.53
2023-04-16T12:24:24.496Z,100270.63
2023-04-16T12:27:03.450Z,100276.69
2023-04-16T12:29:30.469Z,100266.78
2023-04-16T12:31:58.120Z,100268.38
2023-04-16T12:34:29.113Z,100284.28
2023-04-16T12:37:13.161Z,100272.56
2023-04-16T12:39:40.719Z,100282.88
2023-04-16T12:42:11.480Z,100271.03
2023-04-16T12:44:38.650Z,100271.16
2023-04-16T12:47:05.851Z,100276.03
2023-04-16T12:49:32.915Z,100276.78
2023-04-16T12:51:59.934Z,100288.47
2023-04-16T12:54:29.367Z,100278.28
2023-04-16T12:56:56.359Z,100282.09
2023-04-16T12:59:23.858Z,100279.88
2023-04-16T13:01:50.964Z,100285.28
2023-04-16T13:04:19.353Z,100299.09
2023-04-16T13:06:46.588Z,100297.69
2023-04-16T13:09:13.550Z,100290.50
2023-04-16T13:11:40.517Z,100291.63
2023-04-16T13:14:07.504Z,100276.25
2023-04-16T13:16:34.671Z,100279.91
2023-04-16T13:19:01.631Z,100282.06
2023-04-16T13:21:28.777Z,100277.41
2023-04-16T13:23:55.758Z,100282.97
2023-04-16T13:26:22.693Z,100272.44
2023-04-16T13:28:49.699Z,100279.09
2023-04-16T13:31:20.167Z,100281.06
2023-04-16T13:33:47.462Z,100280.53
2023-04-16T13:36:14.840Z,100276.09
2023-04-16T13:38:42.571Z,100271.22
2023-04-16T13:41:09.486Z,100273.84
2023-04-16T13:43:37.599Z,100262.78
2023-04-16T13:46:04.753Z,100277.63
2023-04-16T13:48:31.853Z,100262.34
2023-04-16T13:50:58.863Z,100267.13
2023-04-16T13:53:26.103Z,100269.38
2023-04-16T13:55:53.175Z,100272.53
2023-04-16T13:58:20.803Z,100267.13
2023-04-16T14:00:47.896Z,100263.53
2023-04-16T14:03:14.999Z,100264.88
2023-04-16T14:05:41.971Z,100254.13
2023-04-16T14:08:10.268Z,100260.72
2023-04-16T14:10:37.241Z,100268.84
2023-04-16T14:13:04.291Z,100264.28
2023-04-16T14:15:31.868Z,100263.31
2023-04-16T14:17:58.815Z,100260.84
2023-04-16T14:20:25.959Z,100266.28
2023-04-16T14:22:52.995Z,100269.38
2023-04-16T14:25:20.072Z,100256.91
2023-04-16T14:27:47.102Z,100256.59
2023-04-16T14:30:14.207Z,100255.13
2023-04-16T14:32:41.359Z,100258.16
2023-04-16T14:35:08.968Z,100258.56
2023-04-16T14:37:36.952Z,100267.75
2023-04-16T14:40:09.082Z,100257.37
2023-04-16T14:42:36.996Z,100263.44
2023-04-16T14:45:06.798Z,100264.44
2023-04-16T14:47:34.634Z,100253.78
2023-04-16T14:50:02.559Z,100251.94
2023-04-16T14:52:32.029Z,100255.03
2023-04-16T14:54:59.061Z,100258.88
2023-04-16T14:57:26.910Z,100262.03
2023-04-16T14:59:53.863Z,100257.16
2023-04-16T15:02:21.785Z,100256.38
2023-04-16T15:04:48.994Z,100266.47
2023-04-16T15:07:16.060Z,100266.91
2023-04-16T15:09:43.105Z,100270.56
2023-04-16T15:12:10.023Z,100260.31
2023-04-16T15:14:37.165Z,100250.22
2023-04-16T15:17:04.359Z,100257.91
2023-04-16T15:19:31.344Z,100266.25
2023-04-16T15:21:58.311Z,100264.66
2023-04-16T15:24:25.213Z,100258.41
2023-04-16T15:26:52.279Z,100265.50
2023-04-16T15:29:19.203Z,100270.78
2023-04-16T15:31:47.820Z,100269.00
2023-04-16T15:34:14.887Z,100276.12
2023-04-16T15:36:42.480Z,100272.06
2023-04-16T15:39:10.033Z,100272.47
2023-04-16T15:41:53.370Z,100272.50
2023-04-16T15:44:26.857Z,100282.66
2023-04-16T15:46:53.866Z,100275.25
2023-04-16T15:49:20.822Z,100268.44
2023-04-16T15:51:47.815Z,100273.63
2023-04-16T15:54:14.794Z,100269.06
2023-04-16T15:56:41.965Z,100273.41
2023-04-16T15:59:09.780Z,100279.12
2023-04-16T16:01:36.942Z,100273.75
2023-04-16T16:04:04.399Z,100272.88
2023-04-16T16:06:31.773Z,100274.91
2023-04-16T16:08:59.586Z,100284.84
2023-04-16T16:11:27.657Z,100288.25
2023-04-16T16:13:54.627Z,100285.81
2023-04-16T16:16:22.153Z,100290.47
2023-04-16T16:18:49.281Z,100285.44
2023-04-16T16:21:16.471Z,100282.34
2023-04-16T16:23:43.475Z,100293.38
2023-04-16T16:26:10.514Z,100287.13
2023-04-16T16:28:38.269Z,100279.19
2023-04-16T16:31:06.240Z,100285.25
2023-04-16T16:33:33.460Z,100280.63
2023-04-16T16:36:00.632Z,100287.44
2023-04-16T16:38:27.987Z,100287.16
2023-04-16T16:40:55.004Z,100289.62
2023-04-16T16:43:22.806Z,100273.50
2023-04-16T16:45:49.852Z,100279.56
2023-04-16T16:48:16.852Z,100277.25
2023-04-16T16:50:43.837Z,100281.75
2023-04-16T16:53:10.830Z,100281.44
2023-04-16T16:55:38.349Z,100285.34
2023-04-16T16:58:05.471Z,100278.25
2023-04-16T17:00:32.574Z,100284.69
2023-04-16T17:02:59.918Z,100279.47
2023-04-16T17:05:27.168Z,100284.63
2023-04-16T17:07:54.349Z,100284.47
2023-04-16T17:10:21.536Z,100278.66
2023-04-16T17:12:49.792Z,100284.44
2023-04-16T17:15:19.685Z,100288.50
2023-04-16T17:17:48.535Z,100288.97
2023-04-16T17:20:15.844Z,100281.34
2023-04-16T17:22:43.085Z,100286.75
2023-04-16T17:25:10.414Z,100278.06
2023-04-16T17:27:37.374Z,100294.69
2023-04-16T17:30:06.009Z,100283.38
2023-04-16T17:32:33.651Z,100287.19
2023-04-16T17:35:02.154Z,100294.28
2023-04-16T17:37:29.338Z,100290.47
2023-04-16T17:39:56.519Z,100297.63
2023-04-16T17:42:24.873Z,100300.47
2023-04-16T17:44:52.134Z,100308.09
2023-04-16T17:47:19.168Z,100306.41
2023-04-16T17:49:46.227Z,100298.91
2023-04-16T17:52:13.293Z,100304.63
2023-04-16T17:54:40.283Z,100307.47
2023-04-16T17:57:07.385Z,100301.25
2023-04-16T17:59:34.900Z,100310.69
2023-04-16T18:02:02.124Z,100305.44
2023-04-16T18:04:29.420Z,100307.38
2023-04-16T18:06:56.573Z,100309.06
2023-04-16T18:09:23.569Z,100313.56
2023-04-16T18:11:50.552Z,100311.06
2023-04-16T18:14:20.241Z,100317.78
2023-04-16T18:16:50.247Z,100319.59
2023-04-16T18:19:17.342Z,100317.03
2023-04-16T18:21:44.340Z,100322.28
2023-04-16T18:24:11.999Z,100322.94
2023-04-16T18:26:41.087Z,100331.72
2023-04-16T18:29:09.132Z,100320.59
2023-04-16T18:31:36.583Z,100318.97
2023-04-16T18:34:03.707Z,100330.31
2023-04-16T18:36:31.445Z,100338.75
2023-04-16T18:39:01.777Z,100336.28
2023-04-16T18:41:31.074Z,100343.34
2023-04-16T18:43:58.119Z,100344.16
2023-04-16T18:46:25.559Z,100353.84
2023-04-16T18:48:52.588Z,100344.97
2023-04-16T18:51:19.665Z,100352.59
2023-04-16T18:53:46.748Z,100356.59
2023-04-16T18:56:13.718Z,100355.63
2023-04-16T18:58:40.749Z,100354.59
2023-04-16T19:01:11.376Z,100354.56
2023-04-16T19:03:39.031Z,100354.75
2023-04-16T19:06:06.474Z,100347.62
2023-04-16T19:08:33.541Z,100347.50
2023-04-16T19:11:00.521Z,100350.72
2023-04-16T19:13:27.651Z,100354.91
2023-04-16T19:16:00.000Z,100352.84
2023-04-16T19:18:27.329Z,100354.81
2023-04-16T19:21:01.097Z,100352.06
2023-04-16T19:23:28.812Z,100343.31
2023-04-16T19:25:57.163Z,100349.75
2023-04-16T19:28:24.933Z,100347.88
2023-04-16T19:30:52.826Z,100349.75
2023-04-16T19:33:20.174Z,100344.16
2023-04-16T19:35:47.545Z,100338.19
2023-04-16T19:38:14.578Z,100339.88
2023-04-16T19:40:45.693Z,100338.84
2023-04-16T19:43:12.924Z,100354.81
2023-04-16T19:45:47.616Z,100335.16
2023-04-16T19:48:14.954Z,100337.31
2023-04-16T19:50:43.270Z,100338.25
2023-04-16T19:53:11.299Z,100340.75
2023-04-16T19:55:42.294Z,100345.31
2023-04-16T19:58:10.041Z,100340.72
2023-04-16T20:00:39.006Z,100344.31
2023-04-16T20:03:06.590Z,100347.03
2023-04-16T20:05:34.121Z,100337.66
2023-04-16T20:08:01.453Z,100345.44
2023-04-16T20:10:29.466Z,100343.47
2023-04-16T20:12:56.581Z,100325.75
2023-04-16T20:15:23.546Z,100338.19
2023-04-16T20:17:50.634Z,100338.41
2023-04-16T20:20:17.738Z,100337.47
2023-04-16T20:22:44.780Z,100339.09
2023-04-16T20:25:11.801Z,100333.78
2023-04-16T20:27:38.775Z,100338.25
2023-04-16T20:30:06.520Z,100333.94
2023-04-16T20:32:33.599Z,100341.06
2023-04-16T20:35:02.176Z,100341.09
2023-04-16T20:37:29.346Z,100340.31
2023-04-16T20:39:56.545Z,100335.66
2023-04-16T20:42:23.668Z,100334.81
2023-04-16T20:44:50.707Z,100341.00
2023-04-16T20:47:17.676Z,100332.00
2023-04-16T20:49:48.012Z,100338.19
2023-04-16T20:52:16.036Z,100330.31
2023-04-16T20:54:42.941Z,100326.69
2023-04-16T20:57:09.953Z,100326.78
2023-04-16T20:59:37.224Z,100318.91
2023-04-16T21:02:04.425Z,100319.72
2023-04-16T21:04:31.776Z,100314.97
2023-04-16T21:06:58.827Z,100315.28
2023-04-16T21:09:25.737Z,100306.84
2023-04-16T21:11:52.743Z,100321.03
2023-04-16T21:14:19.759Z,100305.88
2023-04-16T21:16:46.659Z,100309.69
2023-04-16T21:19:13.764Z,100311.25
2023-04-16T21:21:42.059Z,100318.37
2023-04-16T21:24:09.158Z,100312.34
2023-04-16T21:26:36.043Z,100312.22
2023-04-16T21:29:03.049Z,100309.53
2023-04-16T21:31:30.074Z,100309.47
2023-04-16T21:33:57.061Z,100319.34
2023-04-16T21:36:27.102Z,100309.38
2023-04-16T21:38:54.016Z,100316.34
2023-04-16T21:41:21.182Z,100311.41
2023-04-16T21:43:48.088Z,100319.16
2023-04-16T21:46:15.183Z,100322.00
2023-04-16T21:48:42.120Z,100320.94
2023-04-16T21:51:10.285Z,100321.87
2023-04-16T21:53:38.964Z,100321.75
2023-04-16T21:56:06.728Z,100314.97
2023-04-16T21:58:33.663Z,100318.34
2023-04-16T22:01:00.649Z,100316.69
2023-04-16T22:03:28.265Z,100316.72
2023-04-16T22:06:02.645Z,100319.34
2023-04-16T22:08:30.413Z,100321.09
2023-04-16T22:10:59.350Z,100316.56
2023-04-16T22:13:26.730Z,100312.06
2023-04-16T22:15:55.164Z,100302.50
2023-04-16T22:18:24.546Z,100295.75
2023-04-16T22:20:55.086Z,100297.38
2023-04-16T22:23:23.494Z,100293.09
2023-04-16T22:25:50.693Z,100296.69
2023-04-16T22:28:17.685Z,100286.19
2023-04-16T22:30:44.627Z,100283.47
2023-04-16T22:33:11.643Z,100285.97
2023-04-16T22:35:38.556Z,100284.41
2023-04-16T22:38:05.709Z,100280.69
2023-04-16T22:40:32.636Z,100278.25
2023-04-16T22:42:59.554Z,100277.94
2023-04-16T22:45:27.493Z,100278.84
2023-04-16T22:47:54.533Z,100276.38
2023-04-16T22:50:22.780Z,100272.03
2023-04-16T22:52:49.716Z,100278.22
2023-04-16T22:55:17.026Z,100279.91
2023-04-16T22:57:44.017Z,100269.41
2023-04-16T23:00:16.059Z,100273.94
2023-04-16T23:02:43.760Z,100264.37
2023-04-16T23:05:11.187Z,100257.00
2023-04-16T23:07:38.115Z,100253.50
2023-04-16T23:10:05.790Z,100249.25
2023-04-16T23:12:32.671Z,100261.69
2023-04-16T23:15:00.911Z,100257.09
2023-04-16T23:17:28.186Z,100249.44
2023-04-16T23:19:55.189Z,100251.97
2023-04-16T23:22:22.195Z,100244.09
2023-04-16T23:24:49.209Z,100245.13
2023-04-16T23:27:16.269Z,100242.50
2023-04-16T23:29:43.173Z,100245.00
2023-04-16T23:32:10.119Z,100239.88
2023-04-16T23:34:36.992Z,100238.03
2023-04-16T23:37:03.997Z,100232.84
2023-04-16T23:39:30.942Z,100226.78
2023-04-16T23:41:58.040Z,100230.37
2023-04-16T23:44:25.044Z,100222.47
2023-04-16T23:46:51.940Z,100232.03
2023-04-16T23:49:18.983Z,100223.25
2023-04-16T23:51:46.123Z,100224.19
2023-04-16T23:54:13.020Z,100219.03
2023-04-16T23:56:39.941Z,100214.41
2023-04-16T23:59:06.954Z,100210.06
